sensor_id;sensor_type;location;lat;lon;timestamp;temperature;humidity
52943;DHT22;38809;53.300;6.614;2023-07-22T00:01:18;13.70;99.90
52943;DHT22;38809;53.300;6.614;2023-07-22T00:03:44;13.80;99.90
52943;DHT22;38809;53.300;6.614;2023-07-22T00:06:10;13.70;99.90
52943;DHT22;38809;53.300;6.614;2023-07-22T00:08:37;13.80;99.90
52943;DHT22;38809;53.300;6.614;2023-07-22T00:11:04;13.70;99.90
52943;DHT22;38809;53.300;6.614;2023-07-22T00:13:30;13.70;99.90
52943;DHT22;38809;53.300;6.614;2023-07-22T00:15:56;13.70;99.90
52943;DHT22;38809;53.300;6.614;2023-07-22T00:18:24;13.70;99.90
52943;DHT22;38809;53.300;6.614;2023-07-22T00:20:50;13.90;99.90
52943;DHT22;38809;53.300;6.614;2023-07-22T00:23:16;13.70;99.90
52943;DHT22;38809;53.300;6.614;2023-07-22T00:25:42;13.70;99.90
52943;DHT22;38809;53.300;6.614;2023-07-22T00:28:07;13.70;99.90
52943;DHT22;38809;53.300;6.614;2023-07-22T00:30:33;13.90;99.90
52943;DHT22;38809;53.300;6.614;2023-07-22T00:33:00;13.90;99.90
52943;DHT22;38809;53.300;6.614;2023-07-22T00:35:26;13.60;99.90
52943;DHT22;38809;53.300;6.614;2023-07-22T00:37:52;13.60;99.90
52943;DHT22;38809;53.300;6.614;2023-07-22T00:40:18;13.50;99.90
52943;DHT22;38809;53.300;6.614;2023-07-22T00:42:44;13.50;99.90
52943;DHT22;38809;53.300;6.614;2023-07-22T00:45:10;13.60;99.90
52943;DHT22;38809;53.300;6.614;2023-07-22T00:47:36;13.50;99.90
52943;DHT22;38809;53.300;6.614;2023-07-22T00:50:03;13.60;99.90
52943;DHT22;38809;53.300;6.614;2023-07-22T00:52:29;13.40;99.90
52943;DHT22;38809;53.300;6.614;2023-07-22T00:54:55;13.40;99.90
52943;DHT22;38809;53.300;6.614;2023-07-22T00:57:22;13.40;99.90
52943;DHT22;38809;53.300;6.614;2023-07-22T00:59:48;13.40;99.90
52943;DHT22;38809;53.300;6.614;2023-07-22T01:02:14;13.30;99.90
52943;DHT22;38809;53.300;6.614;2023-07-22T01:04:40;13.30;99.90
52943;DHT22;38809;53.300;6.614;2023-07-22T01:07:06;13.30;99.90
52943;DHT22;38809;53.300;6.614;2023-07-22T01:09:43;13.20;99.90
52943;DHT22;38809;53.300;6.614;2023-07-22T01:12:09;13.20;99.90
52943;DHT22;38809;53.300;6.614;2023-07-22T01:14:36;13.20;99.90
52943;DHT22;38809;53.300;6.614;2023-07-22T01:17:03;13.10;99.90
52943;DHT22;38809;53.300;6.614;2023-07-22T01:19:31;13.20;99.90
52943;DHT22;38809;53.300;6.614;2023-07-22T01:21:59;13.10;99.90
52943;DHT22;38809;53.300;6.614;2023-07-22T01:24:26;13.10;99.90
52943;DHT22;38809;53.300;6.614;2023-07-22T01:26:52;13.20;99.90
52943;DHT22;38809;53.300;6.614;2023-07-22T01:29:18;13.20;99.90
52943;DHT22;38809;53.300;6.614;2023-07-22T01:31:47;13.30;99.90
52943;DHT22;38809;53.300;6.614;2023-07-22T01:34:13;13.10;99.90
52943;DHT22;38809;53.300;6.614;2023-07-22T01:36:39;13.10;99.90
52943;DHT22;38809;53.300;6.614;2023-07-22T01:39:05;13.10;99.90
52943;DHT22;38809;53.300;6.614;2023-07-22T01:41:34;13.00;99.90
52943;DHT22;38809;53.300;6.614;2023-07-22T01:43:59;13.00;99.90
52943;DHT22;38809;53.300;6.614;2023-07-22T01:46:25;13.00;99.90
52943;DHT22;38809;53.300;6.614;2023-07-22T01:48:51;13.00;99.90
52943;DHT22;38809;53.300;6.614;2023-07-22T01:51:16;12.90;99.90
52943;DHT22;38809;53.300;6.614;2023-07-22T01:53:42;13.00;99.90
52943;DHT22;38809;53.300;6.614;2023-07-22T01:56:08;12.90;99.90
52943;DHT22;38809;53.300;6.614;2023-07-22T01:58:34;13.00;99.90
52943;DHT22;38809;53.300;6.614;2023-07-22T02:00:59;13.20;99.90
52943;DHT22;38809;53.300;6.614;2023-07-22T02:03:25;13.00;99.90
52943;DHT22;38809;53.300;6.614;2023-07-22T02:05:51;13.10;99.90
52943;DHT22;38809;53.300;6.614;2023-07-22T02:08:16;12.80;99.90
52943;DHT22;38809;53.300;6.614;2023-07-22T02:10:42;12.90;99.90
52943;DHT22;38809;53.300;6.614;2023-07-22T02:13:09;12.70;99.90
52943;DHT22;38809;53.300;6.614;2023-07-22T02:15:34;13.10;99.90
52943;DHT22;38809;53.300;6.614;2023-07-22T02:18:00;12.80;99.90
52943;DHT22;38809;53.300;6.614;2023-07-22T02:20:26;12.90;99.90
52943;DHT22;38809;53.300;6.614;2023-07-22T02:22:54;13.00;99.90
52943;DHT22;38809;53.300;6.614;2023-07-22T02:25:20;12.80;99.90
52943;DHT22;38809;53.300;6.614;2023-07-22T02:27:46;12.70;99.90
52943;DHT22;38809;53.300;6.614;2023-07-22T02:30:12;12.80;99.90
52943;DHT22;38809;53.300;6.614;2023-07-22T02:32:39;12.70;99.90
52943;DHT22;38809;53.300;6.614;2023-07-22T02:35:06;12.30;99.90
52943;DHT22;38809;53.300;6.614;2023-07-22T02:37:33;12.70;99.90
52943;DHT22;38809;53.300;6.614;2023-07-22T02:39:59;12.60;99.90
52943;DHT22;38809;53.300;6.614;2023-07-22T02:42:25;12.50;99.90
52943;DHT22;38809;53.300;6.614;2023-07-22T02:44:51;12.50;99.90
52943;DHT22;38809;53.300;6.614;2023-07-22T02:47:17;12.50;99.90
52943;DHT22;38809;53.300;6.614;2023-07-22T02:49:43;12.50;99.90
52943;DHT22;38809;53.300;6.614;2023-07-22T02:52:09;12.90;99.90
52943;DHT22;38809;53.300;6.614;2023-07-22T02:54:40;12.90;99.90
52943;DHT22;38809;53.300;6.614;2023-07-22T02:57:06;12.60;99.90
52943;DHT22;38809;53.300;6.614;2023-07-22T02:59:32;12.60;99.90
52943;DHT22;38809;53.300;6.614;2023-07-22T03:01:58;12.60;99.90
52943;DHT22;38809;53.300;6.614;2023-07-22T03:04:24;12.60;99.90
52943;DHT22;38809;53.300;6.614;2023-07-22T03:06:50;12.50;99.90
52943;DHT22;38809;53.300;6.614;2023-07-22T03:09:15;12.80;99.90
52943;DHT22;38809;53.300;6.614;2023-07-22T03:11:41;12.80;99.90
52943;DHT22;38809;53.300;6.614;2023-07-22T03:14:06;12.50;99.90
52943;DHT22;38809;53.300;6.614;2023-07-22T03:16:32;12.60;99.90
52943;DHT22;38809;53.300;6.614;2023-07-22T03:18:58;12.50;99.90
52943;DHT22;38809;53.300;6.614;2023-07-22T03:21:23;12.60;99.90
52943;DHT22;38809;53.300;6.614;2023-07-22T03:23:49;12.60;99.90
52943;DHT22;38809;53.300;6.614;2023-07-22T03:26:15;12.80;99.90
52943;DHT22;38809;53.300;6.614;2023-07-22T03:28:41;12.60;99.90
52943;DHT22;38809;53.300;6.614;2023-07-22T03:31:07;12.60;99.90
52943;DHT22;38809;53.300;6.614;2023-07-22T03:33:34;12.70;99.90
52943;DHT22;38809;53.300;6.614;2023-07-22T03:36:00;12.70;99.90
52943;DHT22;38809;53.300;6.614;2023-07-22T03:38:26;12.60;99.90
52943;DHT22;38809;53.300;6.614;2023-07-22T03:40:52;12.70;99.90
52943;DHT22;38809;53.300;6.614;2023-07-22T03:43:20;12.70;99.90
52943;DHT22;38809;53.300;6.614;2023-07-22T03:45:46;12.70;99.90
52943;DHT22;38809;53.300;6.614;2023-07-22T03:48:12;12.70;99.90
52943;DHT22;38809;53.300;6.614;2023-07-22T03:50:37;12.70;99.90
52943;DHT22;38809;53.300;6.614;2023-07-22T03:53:03;12.80;99.90
52943;DHT22;38809;53.300;6.614;2023-07-22T03:55:29;12.70;99.90
52943;DHT22;38809;53.300;6.614;2023-07-22T03:57:54;13.10;99.90
52943;DHT22;38809;53.300;6.614;2023-07-22T04:00:20;12.90;99.90
52943;DHT22;38809;53.300;6.614;2023-07-22T04:02:47;13.10;99.90
52943;DHT22;38809;53.300;6.614;2023-07-22T04:05:12;13.20;99.90
52943;DHT22;38809;53.300;6.614;2023-07-22T04:07:38;13.00;99.90
52943;DHT22;38809;53.300;6.614;2023-07-22T04:10:04;13.20;99.90
52943;DHT22;38809;53.300;6.614;2023-07-22T04:12:30;13.20;99.90
52943;DHT22;38809;53.300;6.614;2023-07-22T04:14:56;13.30;99.90
52943;DHT22;38809;53.300;6.614;2023-07-22T04:17:22;13.50;99.90
52943;DHT22;38809;53.300;6.614;2023-07-22T04:19:48;13.40;99.90
52943;DHT22;38809;53.300;6.614;2023-07-22T04:22:13;13.40;99.90
52943;DHT22;38809;53.300;6.614;2023-07-22T04:24:39;13.40;99.90
52943;DHT22;38809;53.300;6.614;2023-07-22T04:27:05;13.50;99.90
52943;DHT22;38809;53.300;6.614;2023-07-22T04:29:31;13.40;99.90
52943;DHT22;38809;53.300;6.614;2023-07-22T04:32:00;13.50;99.90
52943;DHT22;38809;53.300;6.614;2023-07-22T04:34:32;13.50;99.90
52943;DHT22;38809;53.300;6.614;2023-07-22T04:36:58;13.60;99.90
52943;DHT22;38809;53.300;6.614;2023-07-22T04:39:24;13.60;99.90
52943;DHT22;38809;53.300;6.614;2023-07-22T04:41:50;13.70;99.90
52943;DHT22;38809;53.300;6.614;2023-07-22T04:44:17;13.60;99.90
52943;DHT22;38809;53.300;6.614;2023-07-22T04:46:43;13.80;99.90
52943;DHT22;38809;53.300;6.614;2023-07-22T04:49:08;13.90;99.90
52943;DHT22;38809;53.300;6.614;2023-07-22T04:51:34;14.10;99.90
52943;DHT22;38809;53.300;6.614;2023-07-22T04:54:00;14.00;99.90
52943;DHT22;38809;53.300;6.614;2023-07-22T04:56:25;14.00;99.90
52943;DHT22;38809;53.300;6.614;2023-07-22T04:58:51;14.10;99.90
52943;DHT22;38809;53.300;6.614;2023-07-22T05:01:16;14.20;99.90
52943;DHT22;38809;53.300;6.614;2023-07-22T05:03:42;14.20;99.90
52943;DHT22;38809;53.300;6.614;2023-07-22T05:06:08;14.00;99.90
52943;DHT22;38809;53.300;6.614;2023-07-22T05:08:34;14.20;99.90
52943;DHT22;38809;53.300;6.614;2023-07-22T05:11:00;14.20;99.90
52943;DHT22;38809;53.300;6.614;2023-07-22T05:13:26;14.10;99.90
52943;DHT22;38809;53.300;6.614;2023-07-22T05:15:51;14.10;99.90
52943;DHT22;38809;53.300;6.614;2023-07-22T05:18:17;14.10;99.90
52943;DHT22;38809;53.300;6.614;2023-07-22T05:20:42;14.20;99.90
52943;DHT22;38809;53.300;6.614;2023-07-22T05:23:08;14.10;99.90
52943;DHT22;38809;53.300;6.614;2023-07-22T05:25:34;14.10;99.90
52943;DHT22;38809;53.300;6.614;2023-07-22T05:27:59;14.20;99.90
52943;DHT22;38809;53.300;6.614;2023-07-22T05:30:25;14.30;99.90
52943;DHT22;38809;53.300;6.614;2023-07-22T05:32:54;14.60;99.90
52943;DHT22;38809;53.300;6.614;2023-07-22T05:35:19;14.40;99.90
52943;DHT22;38809;53.300;6.614;2023-07-22T05:37:45;14.70;99.90
52943;DHT22;38809;53.300;6.614;2023-07-22T05:40:11;14.70;99.90
52943;DHT22;38809;53.300;6.614;2023-07-22T05:42:37;14.80;99.90
52943;DHT22;38809;53.300;6.614;2023-07-22T05:45:03;15.00;99.90
52943;DHT22;38809;53.300;6.614;2023-07-22T05:47:29;14.80;99.90
52943;DHT22;38809;53.300;6.614;2023-07-22T05:49:54;14.70;99.90
52943;DHT22;38809;53.300;6.614;2023-07-22T05:52:20;14.60;99.90
52943;DHT22;38809;53.300;6.614;2023-07-22T05:54:46;14.90;99.90
52943;DHT22;38809;53.300;6.614;2023-07-22T05:57:11;14.90;99.90
52943;DHT22;38809;53.300;6.614;2023-07-22T05:59:37;14.80;99.90
52943;DHT22;38809;53.300;6.614;2023-07-22T06:02:03;14.90;99.90
52943;DHT22;38809;53.300;6.614;2023-07-22T06:04:29;15.10;99.90
52943;DHT22;38809;53.300;6.614;2023-07-22T06:06:55;15.00;99.90
52943;DHT22;38809;53.300;6.614;2023-07-22T06:09:20;15.20;99.90
52943;DHT22;38809;53.300;6.614;2023-07-22T06:11:47;15.20;99.90
52943;DHT22;38809;53.300;6.614;2023-07-22T06:14:12;15.10;99.90
52943;DHT22;38809;53.300;6.614;2023-07-22T06:16:38;15.50;99.90
52943;DHT22;38809;53.300;6.614;2023-07-22T06:19:04;15.60;99.90
52943;DHT22;38809;53.300;6.614;2023-07-22T06:21:29;15.60;99.90
52943;DHT22;38809;53.300;6.614;2023-07-22T06:23:55;15.70;99.90
52943;DHT22;38809;53.300;6.614;2023-07-22T06:26:21;15.80;99.90
52943;DHT22;38809;53.300;6.614;2023-07-22T06:28:47;15.70;99.90
52943;DHT22;38809;53.300;6.614;2023-07-22T06:31:13;15.70;99.90
52943;DHT22;38809;53.300;6.614;2023-07-22T06:33:38;15.90;99.90
52943;DHT22;38809;53.300;6.614;2023-07-22T06:36:05;15.70;99.90
52943;DHT22;38809;53.300;6.614;2023-07-22T06:38:30;15.50;99.90
52943;DHT22;38809;53.300;6.614;2023-07-22T06:40:56;15.80;99.90
52943;DHT22;38809;53.300;6.614;2023-07-22T06:43:23;15.60;99.90
52943;DHT22;38809;53.300;6.614;2023-07-22T06:45:48;15.70;99.90
52943;DHT22;38809;53.300;6.614;2023-07-22T06:48:14;16.00;99.90
52943;DHT22;38809;53.300;6.614;2023-07-22T06:50:39;16.10;99.90
52943;DHT22;38809;53.300;6.614;2023-07-22T06:53:05;16.20;99.90
52943;DHT22;38809;53.300;6.614;2023-07-22T06:55:31;16.10;99.90
52943;DHT22;38809;53.300;6.614;2023-07-22T06:57:56;16.20;99.90
52943;DHT22;38809;53.300;6.614;2023-07-22T07:00:22;16.20;99.90
52943;DHT22;38809;53.300;6.614;2023-07-22T07:02:49;16.50;99.90
52943;DHT22;38809;53.300;6.614;2023-07-22T07:05:15;16.50;99.90
52943;DHT22;38809;53.300;6.614;2023-07-22T07:07:42;16.50;99.90
52943;DHT22;38809;53.300;6.614;2023-07-22T07:10:08;16.70;99.90
52943;DHT22;38809;53.300;6.614;2023-07-22T07:12:33;16.50;99.90
52943;DHT22;38809;53.300;6.614;2023-07-22T07:15:00;16.80;99.90
52943;DHT22;38809;53.300;6.614;2023-07-22T07:17:25;17.00;99.90
52943;DHT22;38809;53.300;6.614;2023-07-22T07:19:51;16.90;99.90
52943;DHT22;38809;53.300;6.614;2023-07-22T07:22:17;16.80;99.90
52943;DHT22;38809;53.300;6.614;2023-07-22T07:24:42;17.00;99.90
52943;DHT22;38809;53.300;6.614;2023-07-22T07:27:08;17.00;99.90
52943;DHT22;38809;53.300;6.614;2023-07-22T07:29:34;17.10;99.90
52943;DHT22;38809;53.300;6.614;2023-07-22T07:31:59;17.00;99.90
52943;DHT22;38809;53.300;6.614;2023-07-22T07:34:25;17.00;99.90
52943;DHT22;38809;53.300;6.614;2023-07-22T07:36:51;17.20;99.90
52943;DHT22;38809;53.300;6.614;2023-07-22T07:39:16;16.90;99.90
52943;DHT22;38809;53.300;6.614;2023-07-22T07:41:42;16.90;99.90
52943;DHT22;38809;53.300;6.614;2023-07-22T07:44:08;16.90;99.90
52943;DHT22;38809;53.300;6.614;2023-07-22T07:46:33;16.60;99.90
52943;DHT22;38809;53.300;6.614;2023-07-22T07:49:00;16.80;99.90
52943;DHT22;38809;53.300;6.614;2023-07-22T07:51:28;17.00;99.90
52943;DHT22;38809;53.300;6.614;2023-07-22T07:53:54;17.20;99.90
52943;DHT22;38809;53.300;6.614;2023-07-22T07:56:21;17.40;99.90
52943;DHT22;38809;53.300;6.614;2023-07-22T07:58:47;17.40;99.90
52943;DHT22;38809;53.300;6.614;2023-07-22T08:01:14;17.90;99.90
52943;DHT22;38809;53.300;6.614;2023-07-22T08:03:41;17.70;99.90
52943;DHT22;38809;53.300;6.614;2023-07-22T08:06:08;17.90;99.90
52943;DHT22;38809;53.300;6.614;2023-07-22T08:08:34;18.00;99.90
52943;DHT22;38809;53.300;6.614;2023-07-22T08:11:01;18.00;99.90
52943;DHT22;38809;53.300;6.614;2023-07-22T08:13:27;18.50;99.90
52943;DHT22;38809;53.300;6.614;2023-07-22T08:15:55;18.10;99.90
52943;DHT22;38809;53.300;6.614;2023-07-22T08:18:21;18.30;99.90
52943;DHT22;38809;53.300;6.614;2023-07-22T08:20:46;18.40;99.90
52943;DHT22;38809;53.300;6.614;2023-07-22T08:23:13;18.40;99.90
52943;DHT22;38809;53.300;6.614;2023-07-22T08:25:39;18.60;99.90
52943;DHT22;38809;53.300;6.614;2023-07-22T08:28:05;18.60;99.90
52943;DHT22;38809;53.300;6.614;2023-07-22T08:30:30;18.50;99.90
52943;DHT22;38809;53.300;6.614;2023-07-22T08:32:56;18.60;99.90
52943;DHT22;38809;53.300;6.614;2023-07-22T08:35:22;18.50;99.90
52943;DHT22;38809;53.300;6.614;2023-07-22T08:37:48;18.50;99.90
52943;DHT22;38809;53.300;6.614;2023-07-22T08:40:13;18.40;99.90
52943;DHT22;38809;53.300;6.614;2023-07-22T08:42:40;18.50;99.90
52943;DHT22;38809;53.300;6.614;2023-07-22T08:45:09;18.50;99.90
52943;DHT22;38809;53.300;6.614;2023-07-22T08:47:47;18.40;99.90
52943;DHT22;38809;53.300;6.614;2023-07-22T08:50:18;18.00;99.90
52943;DHT22;38809;53.300;6.614;2023-07-22T08:52:45;18.00;99.90
52943;DHT22;38809;53.300;6.614;2023-07-22T08:55:12;18.00;99.90
52943;DHT22;38809;53.300;6.614;2023-07-22T08:57:39;18.00;99.90
52943;DHT22;38809;53.300;6.614;2023-07-22T09:00:06;18.20;99.90
52943;DHT22;38809;53.300;6.614;2023-07-22T09:02:35;18.20;99.90
52943;DHT22;38809;53.300;6.614;2023-07-22T09:05:02;18.40;99.90
52943;DHT22;38809;53.300;6.614;2023-07-22T09:07:28;18.60;99.90
52943;DHT22;38809;53.300;6.614;2023-07-22T09:09:56;18.70;99.90
52943;DHT22;38809;53.300;6.614;2023-07-22T09:12:22;18.80;99.90
52943;DHT22;38809;53.300;6.614;2023-07-22T09:14:49;19.00;99.90
52943;DHT22;38809;53.300;6.614;2023-07-22T09:17:15;18.90;99.90
52943;DHT22;38809;53.300;6.614;2023-07-22T09:19:41;18.50;99.90
52943;DHT22;38809;53.300;6.614;2023-07-22T09:22:07;18.70;99.90
52943;DHT22;38809;53.300;6.614;2023-07-22T09:24:33;18.80;99.90
52943;DHT22;38809;53.300;6.614;2023-07-22T09:26:59;18.60;99.90
52943;DHT22;38809;53.300;6.614;2023-07-22T09:29:39;18.40;99.90
52943;DHT22;38809;53.300;6.614;2023-07-22T09:32:10;18.30;99.90
52943;DHT22;38809;53.300;6.614;2023-07-22T09:34:35;18.00;99.90
52943;DHT22;38809;53.300;6.614;2023-07-22T09:37:01;18.00;99.90
52943;DHT22;38809;53.300;6.614;2023-07-22T09:39:29;17.90;99.90
52943;DHT22;38809;53.300;6.614;2023-07-22T09:41:55;17.90;99.90
52943;DHT22;38809;53.300;6.614;2023-07-22T09:44:29;17.80;99.90
52943;DHT22;38809;53.300;6.614;2023-07-22T09:46:54;17.70;99.90
52943;DHT22;38809;53.300;6.614;2023-07-22T09:49:20;17.60;99.90
52943;DHT22;38809;53.300;6.614;2023-07-22T09:51:46;17.60;99.90
52943;DHT22;38809;53.300;6.614;2023-07-22T09:54:12;17.50;99.90
52943;DHT22;38809;53.300;6.614;2023-07-22T09:56:45;17.20;99.90
52943;DHT22;38809;53.300;6.614;2023-07-22T09:59:11;17.10;99.90
52943;DHT22;38809;53.300;6.614;2023-07-22T10:01:41;16.80;99.90
52943;DHT22;38809;53.300;6.614;2023-07-22T10:04:08;16.60;99.90
52943;DHT22;38809;53.300;6.614;2023-07-22T10:06:36;16.50;99.90
52943;DHT22;38809;53.300;6.614;2023-07-22T10:09:04;16.70;99.90
52943;DHT22;38809;53.300;6.614;2023-07-22T10:11:36;16.80;99.90
52943;DHT22;38809;53.300;6.614;2023-07-22T10:14:03;16.80;99.90
52943;DHT22;38809;53.300;6.614;2023-07-22T10:16:29;17.00;99.90
52943;DHT22;38809;53.300;6.614;2023-07-22T10:18:57;16.90;99.90
52943;DHT22;38809;53.300;6.614;2023-07-22T10:21:24;17.00;99.90
52943;DHT22;38809;53.300;6.614;2023-07-22T10:23:51;17.00;99.90
52943;DHT22;38809;53.300;6.614;2023-07-22T10:26:18;17.10;99.90
52943;DHT22;38809;53.300;6.614;2023-07-22T10:28:46;17.20;99.90
52943;DHT22;38809;53.300;6.614;2023-07-22T10:31:13;17.10;99.90
52943;DHT22;38809;53.300;6.614;2023-07-22T10:33:39;17.00;99.90
52943;DHT22;38809;53.300;6.614;2023-07-22T10:36:12;17.00;99.90
52943;DHT22;38809;53.300;6.614;2023-07-22T10:38:38;17.20;99.90
52943;DHT22;38809;53.300;6.614;2023-07-22T10:41:22;17.30;99.90
52943;DHT22;38809;53.300;6.614;2023-07-22T10:43:57;17.20;99.90
52943;DHT22;38809;53.300;6.614;2023-07-22T10:46:37;17.20;99.90
52943;DHT22;38809;53.300;6.614;2023-07-22T10:49:13;16.90;99.90
52943;DHT22;38809;53.300;6.614;2023-07-22T10:51:39;17.20;99.90
52943;DHT22;38809;53.300;6.614;2023-07-22T10:54:12;17.20;99.90
52943;DHT22;38809;53.300;6.614;2023-07-22T10:56:42;17.30;99.90
52943;DHT22;38809;53.300;6.614;2023-07-22T10:59:11;17.20;99.90
52943;DHT22;38809;53.300;6.614;2023-07-22T11:01:43;17.20;99.90
52943;DHT22;38809;53.300;6.614;2023-07-22T11:04:22;17.20;99.90
52943;DHT22;38809;53.300;6.614;2023-07-22T11:07:00;17.30;99.90
52943;DHT22;38809;53.300;6.614;2023-07-22T11:12:10;17.20;99.90
52943;DHT22;38809;53.300;6.614;2023-07-22T11:14:45;17.20;99.90
52943;DHT22;38809;53.300;6.614;2023-07-22T11:17:11;17.20;99.90
52943;DHT22;38809;53.300;6.614;2023-07-22T11:19:37;17.20;99.90
52943;DHT22;38809;53.300;6.614;2023-07-22T11:22:04;17.00;99.90
52943;DHT22;38809;53.300;6.614;2023-07-22T11:24:35;16.90;99.90
52943;DHT22;38809;53.300;6.614;2023-07-22T11:27:04;17.00;99.90
52943;DHT22;38809;53.300;6.614;2023-07-22T11:29:30;16.90;99.90
52943;DHT22;38809;53.300;6.614;2023-07-22T11:31:56;16.90;99.90
52943;DHT22;38809;53.300;6.614;2023-07-22T11:34:24;16.90;99.90
52943;DHT22;38809;53.300;6.614;2023-07-22T11:36:51;16.80;99.90
52943;DHT22;38809;53.300;6.614;2023-07-22T11:39:19;16.80;99.90
52943;DHT22;38809;53.300;6.614;2023-07-22T11:41:45;16.90;99.90
52943;DHT22;38809;53.300;6.614;2023-07-22T11:44:13;16.80;99.90
52943;DHT22;38809;53.300;6.614;2023-07-22T11:51:58;17.10;99.90
52943;DHT22;38809;53.300;6.614;2023-07-22T11:54:24;17.10;99.90
52943;DHT22;38809;53.300;6.614;2023-07-22T11:56:50;17.20;99.90
52943;DHT22;38809;53.300;6.614;2023-07-22T11:59:16;17.10;99.90
52943;DHT22;38809;53.300;6.614;2023-07-22T12:01:44;17.30;99.90
52943;DHT22;38809;53.300;6.614;2023-07-22T12:04:14;17.30;99.90
52943;DHT22;38809;53.300;6.614;2023-07-22T12:06:40;17.30;99.90
52943;DHT22;38809;53.300;6.614;2023-07-22T12:09:08;17.30;99.90
52943;DHT22;38809;53.300;6.614;2023-07-22T12:11:35;17.30;99.90
52943;DHT22;38809;53.300;6.614;2023-07-22T12:14:11;17.40;99.90
52943;DHT22;38809;53.300;6.614;2023-07-22T12:16:42;17.50;99.90
52943;DHT22;38809;53.300;6.614;2023-07-22T12:19:08;17.60;99.90
52943;DHT22;38809;53.300;6.614;2023-07-22T12:21:35;17.60;99.90
52943;DHT22;38809;53.300;6.614;2023-07-22T12:24:01;17.60;99.90
52943;DHT22;38809;53.300;6.614;2023-07-22T12:26:27;17.70;99.90
52943;DHT22;38809;53.300;6.614;2023-07-22T12:28:53;17.70;99.90
52943;DHT22;38809;53.300;6.614;2023-07-22T12:31:19;17.70;99.90
52943;DHT22;38809;53.300;6.614;2023-07-22T12:33:45;17.60;99.90
52943;DHT22;38809;53.300;6.614;2023-07-22T12:36:11;17.50;99.90
52943;DHT22;38809;53.300;6.614;2023-07-22T12:38:37;17.40;99.90
52943;DHT22;38809;53.300;6.614;2023-07-22T12:41:03;17.40;99.90
52943;DHT22;38809;53.300;6.614;2023-07-22T12:43:30;17.30;99.90
52943;DHT22;38809;53.300;6.614;2023-07-22T12:45:56;17.30;99.90
52943;DHT22;38809;53.300;6.614;2023-07-22T12:48:22;17.20;99.90
52943;DHT22;38809;53.300;6.614;2023-07-22T12:50:50;17.00;99.90
52943;DHT22;38809;53.300;6.614;2023-07-22T12:53:16;16.90;99.90
52943;DHT22;38809;53.300;6.614;2023-07-22T12:55:41;17.00;99.90
52943;DHT22;38809;53.300;6.614;2023-07-22T12:58:07;17.00;99.90
52943;DHT22;38809;53.300;6.614;2023-07-22T13:00:33;17.20;99.90
52943;DHT22;38809;53.300;6.614;2023-07-22T13:02:59;17.30;99.90
52943;DHT22;38809;53.300;6.614;2023-07-22T13:05:24;17.40;99.90
52943;DHT22;38809;53.300;6.614;2023-07-22T13:07:50;17.60;99.90
52943;DHT22;38809;53.300;6.614;2023-07-22T13:10:17;17.60;99.90
52943;DHT22;38809;53.300;6.614;2023-07-22T13:12:45;17.70;99.90
52943;DHT22;38809;53.300;6.614;2023-07-22T13:15:11;17.90;99.90
52943;DHT22;38809;53.300;6.614;2023-07-22T13:17:37;18.00;99.90
52943;DHT22;38809;53.300;6.614;2023-07-22T13:20:07;18.30;99.90
52943;DHT22;38809;53.300;6.614;2023-07-22T13:22:35;18.50;99.90
52943;DHT22;38809;53.300;6.614;2023-07-22T13:25:01;18.50;99.90
52943;DHT22;38809;53.300;6.614;2023-07-22T13:27:28;18.70;99.90
52943;DHT22;38809;53.300;6.614;2023-07-22T13:29:53;18.80;99.90
52943;DHT22;38809;53.300;6.614;2023-07-22T13:32:19;18.80;99.90
52943;DHT22;38809;53.300;6.614;2023-07-22T13:34:44;19.00;99.90
52943;DHT22;38809;53.300;6.614;2023-07-22T13:37:10;18.90;99.90
52943;DHT22;38809;53.300;6.614;2023-07-22T13:39:36;19.00;99.90
52943;DHT22;38809;53.300;6.614;2023-07-22T13:42:01;19.10;99.90
52943;DHT22;38809;53.300;6.614;2023-07-22T13:44:27;19.20;99.90
52943;DHT22;38809;53.300;6.614;2023-07-22T13:46:53;19.00;99.90
52943;DHT22;38809;53.300;6.614;2023-07-22T13:49:18;19.10;99.90
52943;DHT22;38809;53.300;6.614;2023-07-22T13:51:44;18.90;99.90
52943;DHT22;38809;53.300;6.614;2023-07-22T13:54:10;18.90;99.90
52943;DHT22;38809;53.300;6.614;2023-07-22T13:56:35;18.80;99.90
52943;DHT22;38809;53.300;6.614;2023-07-22T13:59:01;18.70;99.90
52943;DHT22;38809;53.300;6.614;2023-07-22T14:01:29;18.60;99.90
52943;DHT22;38809;53.300;6.614;2023-07-22T14:03:54;18.50;99.90
52943;DHT22;38809;53.300;6.614;2023-07-22T14:06:20;18.40;99.90
52943;DHT22;38809;53.300;6.614;2023-07-22T14:08:46;18.30;99.90
52943;DHT22;38809;53.300;6.614;2023-07-22T14:11:12;18.20;99.90
52943;DHT22;38809;53.300;6.614;2023-07-22T14:13:38;18.10;99.90
52943;DHT22;38809;53.300;6.614;2023-07-22T14:16:03;18.00;99.90
52943;DHT22;38809;53.300;6.614;2023-07-22T14:18:29;18.00;99.90
52943;DHT22;38809;53.300;6.614;2023-07-22T14:20:55;17.80;99.90
52943;DHT22;38809;53.300;6.614;2023-07-22T14:23:21;17.80;99.90
52943;DHT22;38809;53.300;6.614;2023-07-22T14:25:46;17.70;99.90
52943;DHT22;38809;53.300;6.614;2023-07-22T14:28:12;17.40;99.90
52943;DHT22;38809;53.300;6.614;2023-07-22T14:30:38;17.10;99.90
52943;DHT22;38809;53.300;6.614;2023-07-22T14:33:03;17.50;99.90
52943;DHT22;38809;53.300;6.614;2023-07-22T14:35:29;16.00;99.90
52943;DHT22;38809;53.300;6.614;2023-07-22T14:37:54;16.00;99.90
52943;DHT22;38809;53.300;6.614;2023-07-22T14:40:21;16.00;99.90
52943;DHT22;38809;53.300;6.614;2023-07-22T14:42:47;15.90;99.90
52943;DHT22;38809;53.300;6.614;2023-07-22T14:45:13;15.80;99.90
52943;DHT22;38809;53.300;6.614;2023-07-22T14:47:39;15.80;99.90
52943;DHT22;38809;53.300;6.614;2023-07-22T14:50:05;15.90;99.90
52943;DHT22;38809;53.300;6.614;2023-07-22T14:52:31;15.90;99.90
52943;DHT22;38809;53.300;6.614;2023-07-22T14:54:57;15.90;99.90
52943;DHT22;38809;53.300;6.614;2023-07-22T14:57:22;16.00;99.90
52943;DHT22;38809;53.300;6.614;2023-07-22T14:59:52;16.10;99.90
52943;DHT22;38809;53.300;6.614;2023-07-22T15:02:17;16.20;99.90
52943;DHT22;38809;53.300;6.614;2023-07-22T15:04:43;16.20;99.90
52943;DHT22;38809;53.300;6.614;2023-07-22T15:07:09;16.30;99.90
52943;DHT22;38809;53.300;6.614;2023-07-22T15:09:34;16.30;99.90
52943;DHT22;38809;53.300;6.614;2023-07-22T15:12:00;16.40;99.90
52943;DHT22;38809;53.300;6.614;2023-07-22T15:14:25;16.50;99.90
52943;DHT22;38809;53.300;6.614;2023-07-22T15:16:51;16.70;99.90
52943;DHT22;38809;53.300;6.614;2023-07-22T15:19:17;16.80;99.90
52943;DHT22;38809;53.300;6.614;2023-07-22T15:21:42;17.00;99.90
52943;DHT22;38809;53.300;6.614;2023-07-22T15:24:08;17.10;99.90
52943;DHT22;38809;53.300;6.614;2023-07-22T15:26:34;17.30;99.90
52943;DHT22;38809;53.300;6.614;2023-07-22T15:28:59;17.30;99.90
52943;DHT22;38809;53.300;6.614;2023-07-22T15:31:25;17.30;99.90
52943;DHT22;38809;53.300;6.614;2023-07-22T15:33:51;17.40;99.90